CheckWX is a tool to help pilots better visualize weather data.  It is not intended as a substitute for an official pre-flight weather briefing.

03:04:13 UTC

KROW METAR
Roswell International Air Center Airport
Roswell, New Mexico, USA
Current

1 hour ago

KROW 180151Z 29005KT 10SM CLR 08/M15 A2986 RMK AO2 SLP103 T00831150
Observed
Feb-18 @ 01:51 UTC
Wind
  • 290° at 5 KTS
Visibility
10 SM
Flight Rules
VFR
Cloud Levels
  • Clear skies
Temperature
C / 46°F
Dewpoint
-15°C / 5°F
Humidity
18%
Altimeter
29.86" Hg
Pressure
1010.3 hPa
Previous

2 hours ago

KROW 180051Z 27014KT 10SM CLR 12/M17 A2982 RMK AO2 SLP084 T01171167
Observed
Feb-18 @ 00:51 UTC
Wind
  • 270° at 14 KTS
Visibility
10 SM
Flight Rules
VFR
Cloud Levels
  • Clear skies
Temperature
12°C / 54°F
Dewpoint
-17°C / 1°F
Humidity
12%
Altimeter
29.82" Hg
Pressure
1008.4 hPa
Previous

3 hours ago

KROW 172351Z 28017G25KT 10SM CLR 14/M16 A2979 RMK AO2 PK WND 28029/2328 SLP068 T01391161 10156 20094 55009
Observed
Feb-17 @ 23:51 UTC
Wind
  • 280° at 17 KTS
  • Gusting to 25 KTS
Visibility
10 SM
Flight Rules
VFR
Cloud Levels
  • Clear skies
Temperature
14°C / 57°F
Dewpoint
-16°C / 3°F
Humidity
11%
Altimeter
29.79" Hg
Pressure
1006.8 hPa